sensor_id;sensor_type;location;lat;lon;timestamp;pressure;altitude;pressure_sealevel;temperature;humidity
75006;BME280;63553;51.814;4.600;2023-06-22T00:02:13;102097.50;;;25.06;51.99
75006;BME280;63553;51.814;4.600;2023-06-22T00:04:39;102092.56;;;25.03;51.94
75006;BME280;63553;51.814;4.600;2023-06-22T00:07:04;102081.19;;;25.03;52.15
75006;BME280;63553;51.814;4.600;2023-06-22T00:09:31;102075.91;;;25.05;52.08
75006;BME280;63553;51.814;4.600;2023-06-22T00:11:56;102076.31;;;25.03;51.86
75006;BME280;63553;51.814;4.600;2023-06-22T00:14:21;102079.19;;;25.07;52.16
75006;BME280;63553;51.814;4.600;2023-06-22T00:16:47;102079.59;;;25.05;52.36
75006;BME280;63553;51.814;4.600;2023-06-22T00:19:14;102069.38;;;25.01;52.07
75006;BME280;63553;51.814;4.600;2023-06-22T00:21:39;102067.78;;;25.07;52.30
75006;BME280;63553;51.814;4.600;2023-06-22T00:24:05;102066.97;;;25.03;52.38
75006;BME280;63553;51.814;4.600;2023-06-22T00:26:31;102056.78;;;25.02;52.30
75006;BME280;63553;51.814;4.600;2023-06-22T00:28:56;102053.94;;;25.02;52.44
75006;BME280;63553;51.814;4.600;2023-06-22T00:31:21;102064.44;;;24.98;52.60
75006;BME280;63553;51.814;4.600;2023-06-22T00:33:47;102060.00;;;24.97;52.77
75006;BME280;63553;51.814;4.600;2023-06-22T00:36:12;102060.81;;;24.97;52.80
75006;BME280;63553;51.814;4.600;2023-06-22T00:38:41;102059.94;;;24.93;52.72
75006;BME280;63553;51.814;4.600;2023-06-22T00:41:07;102057.97;;;25.01;52.25
75006;BME280;63553;51.814;4.600;2023-06-22T00:43:32;102057.97;;;24.97;52.72
75006;BME280;63553;51.814;4.600;2023-06-22T00:45:57;102050.59;;;24.93;52.85
75006;BME280;63553;51.814;4.600;2023-06-22T00:48:23;102052.25;;;24.94;52.96
75006;BME280;63553;51.814;4.600;2023-06-22T00:50:48;102052.66;;;24.96;52.93
75006;BME280;63553;51.814;4.600;2023-06-22T00:53:15;102055.91;;;24.94;52.81
75006;BME280;63553;51.814;4.600;2023-06-22T00:55:43;102053.84;;;24.95;52.85
75006;BME280;63553;51.814;4.600;2023-06-22T00:58:11;102046.09;;;24.92;52.81
75006;BME280;63553;51.814;4.600;2023-06-22T01:00:37;102055.09;;;24.94;52.83
75006;BME280;63553;51.814;4.600;2023-06-22T01:03:04;102050.22;;;24.94;53.19
75006;BME280;63553;51.814;4.600;2023-06-22T01:05:31;102045.72;;;24.93;52.89
75006;BME280;63553;51.814;4.600;2023-06-22T01:10:48;102038.75;;;24.87;53.02
75006;BME280;63553;51.814;4.600;2023-06-22T01:15:58;102053.34;;;24.85;53.30
75006;BME280;63553;51.814;4.600;2023-06-22T01:18:26;102048.84;;;24.81;53.08
75006;BME280;63553;51.814;4.600;2023-06-22T01:20:54;102054.16;;;24.86;52.70
75006;BME280;63553;51.814;4.600;2023-06-22T01:23:33;102044.41;;;24.83;52.96
75006;BME280;63553;51.814;4.600;2023-06-22T01:26:11;102046.75;;;24.78;53.11
75006;BME280;63553;51.814;4.600;2023-06-22T01:28:48;102044.72;;;24.78;53.15
75006;BME280;63553;51.814;4.600;2023-06-22T01:31:17;102050.00;;;24.76;52.82
75006;BME280;63553;51.814;4.600;2023-06-22T01:33:44;102048.72;;;24.74;53.19
75006;BME280;63553;51.814;4.600;2023-06-22T01:36:11;102042.66;;;24.75;52.89
75006;BME280;63553;51.814;4.600;2023-06-22T01:38:38;102049.19;;;24.76;53.13
75006;BME280;63553;51.814;4.600;2023-06-22T01:41:03;102044.69;;;24.75;52.80
75006;BME280;63553;51.814;4.600;2023-06-22T01:43:30;102042.63;;;24.72;52.97
75006;BME280;63553;51.814;4.600;2023-06-22T01:45:56;102042.66;;;24.75;52.99
75006;BME280;63553;51.814;4.600;2023-06-22T01:48:22;102041.47;;;24.76;52.88
75006;BME280;63553;51.814;4.600;2023-06-22T01:50:48;102035.72;;;24.73;53.20
75006;BME280;63553;51.814;4.600;2023-06-22T01:53:14;102050.41;;;24.78;52.88
75006;BME280;63553;51.814;4.600;2023-06-22T01:55:39;102045.09;;;24.77;53.03
75006;BME280;63553;51.814;4.600;2023-06-22T01:58:05;102042.25;;;24.73;53.11
75006;BME280;63553;51.814;4.600;2023-06-22T02:00:36;102038.13;;;24.71;52.91
75006;BME280;63553;51.814;4.600;2023-06-22T02:03:14;102038.13;;;24.67;53.35
75006;BME280;63553;51.814;4.600;2023-06-22T02:05:50;102035.69;;;24.69;53.14
75006;BME280;63553;51.814;4.600;2023-06-22T02:08:25;102029.22;;;24.72;53.14
75006;BME280;63553;51.814;4.600;2023-06-22T02:10:54;102025.13;;;24.70;52.96
75006;BME280;63553;51.814;4.600;2023-06-22T02:13:20;102023.06;;;24.67;53.08
75006;BME280;63553;51.814;4.600;2023-06-22T02:15:47;102018.19;;;24.67;53.32
75006;BME280;63553;51.814;4.600;2023-06-22T02:18:13;102016.94;;;24.65;53.18
75006;BME280;63553;51.814;4.600;2023-06-22T02:20:39;102013.66;;;24.63;53.29
75006;BME280;63553;51.814;4.600;2023-06-22T02:23:08;102009.59;;;24.60;53.29
75006;BME280;63553;51.814;4.600;2023-06-22T02:25:34;102010.41;;;24.61;53.64
75006;BME280;63553;51.814;4.600;2023-06-22T02:27:59;102005.53;;;24.61;53.47
75006;BME280;63553;51.814;4.600;2023-06-22T02:30:24;102021.00;;;24.64;53.29
75006;BME280;63553;51.814;4.600;2023-06-22T02:32:50;102025.03;;;24.63;53.31
75006;BME280;63553;51.814;4.600;2023-06-22T02:35:23;102022.59;;;24.61;53.38
75006;BME280;63553;51.814;4.600;2023-06-22T02:37:49;102024.22;;;24.62;53.46
75006;BME280;63553;51.814;4.600;2023-06-22T02:40:17;102021.78;;;24.61;53.25
75006;BME280;63553;51.814;4.600;2023-06-22T02:42:42;102016.47;;;24.59;53.62
75006;BME280;63553;51.814;4.600;2023-06-22T02:45:08;102012.81;;;24.59;53.39
75006;BME280;63553;51.814;4.600;2023-06-22T02:47:34;102022.94;;;24.56;53.43
75006;BME280;63553;51.814;4.600;2023-06-22T02:49:59;102025.00;;;24.59;53.46
75006;BME280;63553;51.814;4.600;2023-06-22T02:52:25;102029.06;;;24.58;53.50
75006;BME280;63553;51.814;4.600;2023-06-22T02:54:50;102033.94;;;24.58;53.48
75006;BME280;63553;51.814;4.600;2023-06-22T02:57:16;102029.44;;;24.57;53.61
75006;BME280;63553;51.814;4.600;2023-06-22T02:59:41;102032.25;;;24.53;53.70
75006;BME280;63553;51.814;4.600;2023-06-22T03:02:08;102038.75;;;24.54;53.36
75006;BME280;63553;51.814;4.600;2023-06-22T03:04:34;102035.44;;;24.48;53.74
75006;BME280;63553;51.814;4.600;2023-06-22T03:07:00;102015.50;;;24.45;53.90
75006;BME280;63553;51.814;4.600;2023-06-22T03:09:27;102012.66;;;24.45;53.96
75006;BME280;63553;51.814;4.600;2023-06-22T03:11:55;102008.97;;;24.44;53.50
75006;BME280;63553;51.814;4.600;2023-06-22T03:14:20;102000.03;;;24.42;54.07
75006;BME280;63553;51.814;4.600;2023-06-22T03:16:46;102009.03;;;24.48;53.65
75006;BME280;63553;51.814;4.600;2023-06-22T03:19:11;102005.34;;;24.44;53.95
75006;BME280;63553;51.814;4.600;2023-06-22T03:21:37;101997.19;;;24.42;53.78
75006;BME280;63553;51.814;4.600;2023-06-22T03:24:04;101999.69;;;24.47;54.05
75006;BME280;63553;51.814;4.600;2023-06-22T03:26:30;101997.28;;;24.49;53.66
75006;BME280;63553;51.814;4.600;2023-06-22T03:28:55;101989.94;;;24.48;53.92
75006;BME280;63553;51.814;4.600;2023-06-22T03:31:21;101985.47;;;24.47;53.61
75006;BME280;63553;51.814;4.600;2023-06-22T03:33:48;101993.97;;;24.47;54.00
75006;BME280;63553;51.814;4.600;2023-06-22T03:36:14;101984.22;;;24.45;53.71
75006;BME280;63553;51.814;4.600;2023-06-22T03:38:45;101984.22;;;24.45;54.00
75006;BME280;63553;51.814;4.600;2023-06-22T03:41:10;101983.38;;;24.44;53.86
75006;BME280;63553;51.814;4.600;2023-06-22T03:43:36;101986.63;;;24.43;53.97
75006;BME280;63553;51.814;4.600;2023-06-22T03:46:01;101987.88;;;24.45;53.88
75006;BME280;63553;51.814;4.600;2023-06-22T03:48:26;101978.47;;;24.41;53.98
75006;BME280;63553;51.814;4.600;2023-06-22T03:50:52;101984.16;;;24.41;53.96
75006;BME280;63553;51.814;4.600;2023-06-22T03:53:17;101987.00;;;24.38;54.01
75006;BME280;63553;51.814;4.600;2023-06-22T03:55:50;101979.31;;;24.42;53.76
75006;BME280;63553;51.814;4.600;2023-06-22T03:58:17;101982.59;;;24.44;54.01
75006;BME280;63553;51.814;4.600;2023-06-22T04:00:45;101982.63;;;24.47;53.99
75006;BME280;63553;51.814;4.600;2023-06-22T04:03:10;101974.66;;;23.93;53.03
75006;BME280;63553;51.814;4.600;2023-06-22T04:05:38;101974.28;;;22.09;60.57
75006;BME280;63553;51.814;4.600;2023-06-22T04:08:04;101974.34;;;22.97;59.89
75006;BME280;63553;51.814;4.600;2023-06-22T04:10:29;101978.19;;;23.08;59.58
75006;BME280;63553;51.814;4.600;2023-06-22T04:12:55;101975.38;;;24.16;55.61
75006;BME280;63553;51.814;4.600;2023-06-22T04:15:20;101969.84;;;24.71;53.77
75006;BME280;63553;51.814;4.600;2023-06-22T04:17:45;101973.88;;;25.03;52.98
75006;BME280;63553;51.814;4.600;2023-06-22T04:20:11;101966.75;;;25.27;51.84
75006;BME280;63553;51.814;4.600;2023-06-22T04:22:36;101965.25;;;25.47;50.92
75006;BME280;63553;51.814;4.600;2023-06-22T04:25:02;101977.59;;;25.65;50.89
75006;BME280;63553;51.814;4.600;2023-06-22T04:27:27;101983.81;;;25.85;50.64
75006;BME280;63553;51.814;4.600;2023-06-22T04:29:52;101986.69;;;25.95;50.00
75006;BME280;63553;51.814;4.600;2023-06-22T04:32:18;101992.34;;;25.85;50.60
75006;BME280;63553;51.814;4.600;2023-06-22T04:34:43;101992.63;;;25.62;51.20
75006;BME280;63553;51.814;4.600;2023-06-22T04:37:09;101989.63;;;25.41;51.65
75006;BME280;63553;51.814;4.600;2023-06-22T04:39:34;101995.63;;;25.29;52.39
75006;BME280;63553;51.814;4.600;2023-06-22T04:42:01;101991.88;;;25.18;52.72
75006;BME280;63553;51.814;4.600;2023-06-22T04:44:26;101996.59;;;25.00;53.39
75006;BME280;63553;51.814;4.600;2023-06-22T04:46:57;101992.81;;;24.88;53.24
75006;BME280;63553;51.814;4.600;2023-06-22T04:49:27;101995.22;;;24.83;53.90
75006;BME280;63553;51.814;4.600;2023-06-22T04:52:00;101992.19;;;25.09;52.88
75006;BME280;63553;51.814;4.600;2023-06-22T04:54:26;101992.22;;;25.13;52.87
75006;BME280;63553;51.814;4.600;2023-06-22T04:56:51;101995.94;;;25.17;52.87
75006;BME280;63553;51.814;4.600;2023-06-22T04:59:24;102000.91;;;25.30;52.79
75006;BME280;63553;51.814;4.600;2023-06-22T05:02:00;101994.06;;;25.42;52.40
75006;BME280;63553;51.814;4.600;2023-06-22T05:04:26;101999.41;;;25.47;52.13
75006;BME280;63553;51.814;4.600;2023-06-22T05:06:54;101984.41;;;25.50;52.08
75006;BME280;63553;51.814;4.600;2023-06-22T05:09:20;101993.81;;;25.58;52.24
75006;BME280;63553;51.814;4.600;2023-06-22T05:11:46;101990.63;;;25.70;51.80
75006;BME280;63553;51.814;4.600;2023-06-22T05:14:11;101991.94;;;25.86;51.15
75006;BME280;63553;51.814;4.600;2023-06-22T05:16:37;101991.22;;;26.04;51.08
75006;BME280;63553;51.814;4.600;2023-06-22T05:19:03;101983.16;;;26.16;50.38
75006;BME280;63553;51.814;4.600;2023-06-22T05:21:29;101992.03;;;26.01;50.71
75006;BME280;63553;51.814;4.600;2023-06-22T05:23:56;101993.56;;;25.80;51.40
75006;BME280;63553;51.814;4.600;2023-06-22T05:26:25;101990.75;;;25.29;52.94
75006;BME280;63553;51.814;4.600;2023-06-22T05:28:51;101992.97;;;25.03;53.00
75006;BME280;63553;51.814;4.600;2023-06-22T05:31:16;101981.97;;;25.01;52.70
75006;BME280;63553;51.814;4.600;2023-06-22T05:33:43;101977.28;;;23.79;54.64
75006;BME280;63553;51.814;4.600;2023-06-22T05:36:09;101980.59;;;24.11;55.44
75006;BME280;63553;51.814;4.600;2023-06-22T05:38:35;101986.81;;;24.60;53.58
75006;BME280;63553;51.814;4.600;2023-06-22T05:41:01;101986.97;;;22.57;58.76
75006;BME280;63553;51.814;4.600;2023-06-22T05:43:27;101983.59;;;24.62;54.02
75006;BME280;63553;51.814;4.600;2023-06-22T05:45:52;101988.38;;;24.54;52.84
75006;BME280;63553;51.814;4.600;2023-06-22T05:48:18;101983.00;;;23.83;55.25
75006;BME280;63553;51.814;4.600;2023-06-22T05:50:43;101989.53;;;24.46;53.41
75006;BME280;63553;51.814;4.600;2023-06-22T05:53:09;101982.13;;;25.22;52.21
75006;BME280;63553;51.814;4.600;2023-06-22T05:55:34;101984.97;;;25.73;50.32
75006;BME280;63553;51.814;4.600;2023-06-22T05:57:59;101989.00;;;25.14;51.84
75006;BME280;63553;51.814;4.600;2023-06-22T06:00:25;101985.03;;;24.45;52.42
75006;BME280;63553;51.814;4.600;2023-06-22T06:02:50;101980.59;;;24.11;52.56
75006;BME280;63553;51.814;4.600;2023-06-22T06:05:16;101976.19;;;25.41;51.40
75006;BME280;63553;51.814;4.600;2023-06-22T06:07:42;101979.44;;;24.56;58.80
75006;BME280;63553;51.814;4.600;2023-06-22T06:10:08;101983.03;;;25.30;65.60
75006;BME280;63553;51.814;4.600;2023-06-22T06:12:33;101983.78;;;23.79;54.95
75006;BME280;63553;51.814;4.600;2023-06-22T06:14:59;101990.06;;;24.22;64.03
75006;BME280;63553;51.814;4.600;2023-06-22T06:17:24;101979.41;;;25.36;56.75
75006;BME280;63553;51.814;4.600;2023-06-22T06:19:49;101969.47;;;25.67;54.48
75006;BME280;63553;51.814;4.600;2023-06-22T06:22:15;101974.44;;;25.23;56.56
75006;BME280;63553;51.814;4.600;2023-06-22T06:24:40;101972.47;;;25.99;52.06
75006;BME280;63553;51.814;4.600;2023-06-22T06:27:06;101961.47;;;24.81;51.41
75006;BME280;63553;51.814;4.600;2023-06-22T06:29:34;101964.94;;;25.59;53.31
75006;BME280;63553;51.814;4.600;2023-06-22T06:31:59;101964.91;;;25.56;50.43
75006;BME280;63553;51.814;4.600;2023-06-22T06:34:25;101957.75;;;25.86;51.10
75006;BME280;63553;51.814;4.600;2023-06-22T06:36:50;101951.63;;;24.75;55.03
75006;BME280;63553;51.814;4.600;2023-06-22T06:39:15;101962.25;;;24.42;52.33
75006;BME280;63553;51.814;4.600;2023-06-22T06:41:41;101954.78;;;25.62;51.92
75006;BME280;63553;51.814;4.600;2023-06-22T06:44:07;101945.34;;;24.96;51.67
75006;BME280;63553;51.814;4.600;2023-06-22T06:46:32;101955.25;;;25.78;50.10
75006;BME280;63553;51.814;4.600;2023-06-22T06:48:57;101940.72;;;26.08;51.07
75006;BME280;63553;51.814;4.600;2023-06-22T06:51:23;101945.78;;;26.57;50.09
75006;BME280;63553;51.814;4.600;2023-06-22T06:53:48;101950.69;;;26.70;46.70
75006;BME280;63553;51.814;4.600;2023-06-22T06:56:13;101944.53;;;26.40;46.73
75006;BME280;63553;51.814;4.600;2023-06-22T06:58:42;101947.00;;;26.56;47.30
75006;BME280;63553;51.814;4.600;2023-06-22T07:01:08;101936.03;;;26.75;47.52
75006;BME280;63553;51.814;4.600;2023-06-22T07:03:34;101930.59;;;27.83;45.95
75006;BME280;63553;51.814;4.600;2023-06-22T07:05:59;101929.63;;;28.22;45.51
75006;BME280;63553;51.814;4.600;2023-06-22T07:08:25;101933.63;;;26.95;45.73
75006;BME280;63553;51.814;4.600;2023-06-22T07:10:52;101940.06;;;26.39;46.27
75006;BME280;63553;51.814;4.600;2023-06-22T07:13:17;101941.25;;;26.24;46.31
75006;BME280;63553;51.814;4.600;2023-06-22T07:15:43;101912.56;;;28.00;45.03
75006;BME280;63553;51.814;4.600;2023-06-22T07:18:08;101922.63;;;27.11;43.62
75006;BME280;63553;51.814;4.600;2023-06-22T07:20:34;101925.84;;;27.24;43.62
75006;BME280;63553;51.814;4.600;2023-06-22T07:22:59;101927.06;;;27.30;43.59
75006;BME280;63553;51.814;4.600;2023-06-22T07:25:25;101938.72;;;26.08;44.88
75006;BME280;63553;51.814;4.600;2023-06-22T07:28:02;101940.09;;;26.60;44.77
75006;BME280;63553;51.814;4.600;2023-06-22T07:30:28;101939.78;;;25.75;45.67
75006;BME280;63553;51.814;4.600;2023-06-22T07:32:54;101930.41;;;25.68;45.98
75006;BME280;63553;51.814;4.600;2023-06-22T07:35:19;101928.47;;;25.96;45.15
75006;BME280;63553;51.814;4.600;2023-06-22T07:37:45;101929.34;;;26.04;44.76
75006;BME280;63553;51.814;4.600;2023-06-22T07:40:11;101931.47;;;26.25;44.64
75006;BME280;63553;51.814;4.600;2023-06-22T07:42:36;101923.19;;;25.91;46.60
75006;BME280;63553;51.814;4.600;2023-06-22T07:45:06;101928.59;;;26.18;45.90
75006;BME280;63553;51.814;4.600;2023-06-22T07:47:33;101934.41;;;26.74;44.39
75006;BME280;63553;51.814;4.600;2023-06-22T07:50:00;101921.41;;;28.27;41.73
75006;BME280;63553;51.814;4.600;2023-06-22T07:52:27;101916.47;;;27.20;42.11
75006;BME280;63553;51.814;4.600;2023-06-22T07:54:52;101905.03;;;27.27;41.24
75006;BME280;63553;51.814;4.600;2023-06-22T07:57:18;101896.34;;;27.76;41.54
75006;BME280;63553;51.814;4.600;2023-06-22T07:59:44;101886.53;;;27.77;41.25
75006;BME280;63553;51.814;4.600;2023-06-22T08:02:09;101887.78;;;27.76;41.43
75006;BME280;63553;51.814;4.600;2023-06-22T08:04:35;101890.34;;;27.14;42.72
75006;BME280;63553;51.814;4.600;2023-06-22T08:07:01;101884.09;;;28.48;40.71
75006;BME280;63553;51.814;4.600;2023-06-22T08:09:30;101882.28;;;28.17;40.99
75006;BME280;63553;51.814;4.600;2023-06-22T08:11:56;101873.34;;;27.97;40.83
75006;BME280;63553;51.814;4.600;2023-06-22T08:14:25;101862.97;;;27.55;42.14
75006;BME280;63553;51.814;4.600;2023-06-22T08:16:51;101870.78;;;28.24;40.96
75006;BME280;63553;51.814;4.600;2023-06-22T08:19:16;101871.28;;;28.12;41.90
75006;BME280;63553;51.814;4.600;2023-06-22T08:21:42;101863.88;;;27.14;43.16
75006;BME280;63553;51.814;4.600;2023-06-22T08:24:07;101865.03;;;27.44;42.67
75006;BME280;63553;51.814;4.600;2023-06-22T08:26:33;101846.97;;;27.69;42.62
75006;BME280;63553;51.814;4.600;2023-06-22T08:29:02;101859.06;;;28.04;42.78
75006;BME280;63553;51.814;4.600;2023-06-22T08:31:27;101867.50;;;27.18;44.03
75006;BME280;63553;51.814;4.600;2023-06-22T08:33:53;101865.81;;;27.52;43.87
75006;BME280;63553;51.814;4.600;2023-06-22T08:36:18;101870.34;;;26.26;45.72
75006;BME280;63553;51.814;4.600;2023-06-22T08:38:44;101871.44;;;25.79;47.59
75006;BME280;63553;51.814;4.600;2023-06-22T08:41:10;101876.47;;;26.21;46.74
75006;BME280;63553;51.814;4.600;2023-06-22T08:43:35;101875.50;;;25.74;49.16
75006;BME280;63553;51.814;4.600;2023-06-22T08:46:00;101866.50;;;25.65;48.95
75006;BME280;63553;51.814;4.600;2023-06-22T08:48:28;101873.72;;;25.49;49.87
75006;BME280;63553;51.814;4.600;2023-06-22T08:50:53;101884.88;;;25.85;49.28
75006;BME280;63553;51.814;4.600;2023-06-22T08:53:18;101881.00;;;25.46;49.95
75006;BME280;63553;51.814;4.600;2023-06-22T08:55:44;101879.66;;;26.05;49.58
75006;BME280;63553;51.814;4.600;2023-06-22T08:58:10;101867.94;;;26.56;48.57
75006;BME280;63553;51.814;4.600;2023-06-22T09:00:35;101872.03;;;27.04;47.47
75006;BME280;63553;51.814;4.600;2023-06-22T09:03:01;101873.88;;;25.80;51.20
75006;BME280;63553;51.814;4.600;2023-06-22T09:05:26;101867.50;;;26.15;50.58
75006;BME280;63553;51.814;4.600;2023-06-22T09:07:51;101864.66;;;26.29;50.73
75006;BME280;63553;51.814;4.600;2023-06-22T09:10:17;101873.59;;;25.31;52.87
75006;BME280;63553;51.814;4.600;2023-06-22T09:12:42;101862.63;;;24.75;54.70
75006;BME280;63553;51.814;4.600;2023-06-22T09:15:08;101869.09;;;25.23;54.71
75006;BME280;63553;51.814;4.600;2023-06-22T09:17:34;101871.34;;;25.61;53.79
75006;BME280;63553;51.814;4.600;2023-06-22T09:20:00;101865.56;;;25.47;54.17
75006;BME280;63553;51.814;4.600;2023-06-22T09:22:25;101870.31;;;26.12;52.55
75006;BME280;63553;51.814;4.600;2023-06-22T09:24:54;101863.03;;;26.25;51.88
75006;BME280;63553;51.814;4.600;2023-06-22T09:27:20;101865.50;;;26.33;51.94
75006;BME280;63553;51.814;4.600;2023-06-22T09:29:45;101868.56;;;25.68;53.46
75006;BME280;63553;51.814;4.600;2023-06-22T09:32:10;101861.84;;;25.39;54.40
75006;BME280;63553;51.814;4.600;2023-06-22T09:34:36;101850.66;;;24.99;55.94
75006;BME280;63553;51.814;4.600;2023-06-22T09:37:01;101851.22;;;26.30;51.86
75006;BME280;63553;51.814;4.600;2023-06-22T09:39:27;101850.44;;;25.32;53.86
75006;BME280;63553;51.814;4.600;2023-06-22T09:41:52;101848.72;;;26.04;52.11
75006;BME280;63553;51.814;4.600;2023-06-22T09:44:18;101847.88;;;26.10;52.12
75006;BME280;63553;51.814;4.600;2023-06-22T09:46:43;101845.88;;;26.07;52.27
75006;BME280;63553;51.814;4.600;2023-06-22T09:49:09;101850.69;;;25.03;54.07
75006;BME280;63553;51.814;4.600;2023-06-22T09:51:34;101851.50;;;25.07;54.78
75006;BME280;63553;51.814;4.600;2023-06-22T09:53:59;101847.44;;;25.08;55.27
75006;BME280;63553;51.814;4.600;2023-06-22T09:56:25;101850.22;;;24.97;54.27
75006;BME280;63553;51.814;4.600;2023-06-22T09:58:53;101853.81;;;24.87;54.56
75006;BME280;63553;51.814;4.600;2023-06-22T10:01:18;101856.28;;;24.92;54.88
75006;BME280;63553;51.814;4.600;2023-06-22T10:03:46;101856.09;;;24.71;55.12
75006;BME280;63553;51.814;4.600;2023-06-22T10:06:11;101863.38;;;24.68;55.42
75006;BME280;63553;51.814;4.600;2023-06-22T10:08:37;101865.19;;;24.06;56.49
75006;BME280;63553;51.814;4.600;2023-06-22T10:11:03;101863.09;;;24.80;54.64
75006;BME280;63553;51.814;4.600;2023-06-22T10:13:29;101859.09;;;24.85;54.95
75006;BME280;63553;51.814;4.600;2023-06-22T10:15:54;101857.41;;;24.80;55.67
75006;BME280;63553;51.814;4.600;2023-06-22T10:18:20;101862.94;;;25.14;54.17
75006;BME280;63553;51.814;4.600;2023-06-22T10:20:48;101854.34;;;25.07;54.60
75006;BME280;63553;51.814;4.600;2023-06-22T10:23:14;101856.16;;;25.39;53.85
75006;BME280;63553;51.814;4.600;2023-06-22T10:25:39;101856.13;;;25.32;53.79
75006;BME280;63553;51.814;4.600;2023-06-22T10:28:05;101854.00;;;25.19;54.50
75006;BME280;63553;51.814;4.600;2023-06-22T10:30:30;101851.19;;;24.64;56.09
75006;BME280;63553;51.814;4.600;2023-06-22T10:32:55;101854.56;;;24.80;55.91
75006;BME280;63553;51.814;4.600;2023-06-22T10:35:21;101855.19;;;25.11;55.04
75006;BME280;63553;51.814;4.600;2023-06-22T10:37:46;101855.91;;;25.01;55.03
75006;BME280;63553;51.814;4.600;2023-06-22T10:40:15;101855.91;;;25.01;55.12
75006;BME280;63553;51.814;4.600;2023-06-22T10:42:41;101859.06;;;25.47;53.56
75006;BME280;63553;51.814;4.600;2023-06-22T10:45:07;101860.56;;;25.26;52.52
75006;BME280;63553;51.814;4.600;2023-06-22T10:47:34;101862.56;;;25.22;53.22
75006;BME280;63553;51.814;4.600;2023-06-22T10:49:59;101858.72;;;24.90;53.22
75006;BME280;63553;51.814;4.600;2023-06-22T10:52:24;101865.91;;;25.35;52.12
75006;BME280;63553;51.814;4.600;2023-06-22T10:54:50;101863.06;;;25.35;52.11
75006;BME280;63553;51.814;4.600;2023-06-22T10:57:15;101866.19;;;25.16;52.27
75006;BME280;63553;51.814;4.600;2023-06-22T10:59:41;101864.94;;;25.85;51.35
75006;BME280;63553;51.814;4.600;2023-06-22T11:02:06;101868.53;;;25.65;51.40
75006;BME280;63553;51.814;4.600;2023-06-22T11:04:31;101859.94;;;25.51;51.08
75006;BME280;63553;51.814;4.600;2023-06-22T11:06:57;101865.47;;;25.29;51.80
75006;BME280;63553;51.814;4.600;2023-06-22T11:09:22;101859.56;;;25.59;50.91
75006;BME280;63553;51.814;4.600;2023-06-22T11:11:49;101861.19;;;25.57;52.24
75006;BME280;63553;51.814;4.600;2023-06-22T11:14:14;101863.28;;;25.81;51.75
75006;BME280;63553;51.814;4.600;2023-06-22T11:16:40;101854.81;;;25.95;51.32
75006;BME280;63553;51.814;4.600;2023-06-22T11:19:06;101853.56;;;25.89;51.88
75006;BME280;63553;51.814;4.600;2023-06-22T11:21:32;101849.63;;;25.39;53.01
75006;BME280;63553;51.814;4.600;2023-06-22T11:23:58;101853.06;;;25.62;52.50
75006;BME280;63553;51.814;4.600;2023-06-22T11:26:24;101831.19;;;26.05;51.42
75006;BME280;63553;51.814;4.600;2023-06-22T11:28:52;101820.66;;;26.23;50.60
75006;BME280;63553;51.814;4.600;2023-06-22T11:31:17;101835.75;;;26.34;51.07
75006;BME280;63553;51.814;4.600;2023-06-22T11:33:42;101820.25;;;26.49;50.61
75006;BME280;63553;51.814;4.600;2023-06-22T11:36:10;101829.59;;;26.04;53.37
75006;BME280;63553;51.814;4.600;2023-06-22T11:38:36;101811.72;;;26.39;51.32
75006;BME280;63553;51.814;4.600;2023-06-22T11:41:05;101814.97;;;26.55;50.58
75006;BME280;63553;51.814;4.600;2023-06-22T11:43:31;101809.66;;;26.46;51.74
75006;BME280;63553;51.814;4.600;2023-06-22T11:45:56;101807.63;;;26.43;51.58
75006;BME280;63553;51.814;4.600;2023-06-22T11:48:25;101798.25;;;26.25;53.24
75006;BME280;63553;51.814;4.600;2023-06-22T11:50:51;101794.97;;;26.13;54.01
75006;BME280;63553;51.814;4.600;2023-06-22T11:53:16;101790.13;;;26.38;53.18
75006;BME280;63553;51.814;4.600;2023-06-22T11:55:43;101792.97;;;26.52;52.57
75006;BME280;63553;51.814;4.600;2023-06-22T11:58:09;101795.41;;;26.22;53.81
75006;BME280;63553;51.814;4.600;2023-06-22T12:00:34;101790.09;;;26.17;54.61
75006;BME280;63553;51.814;4.600;2023-06-22T12:02:59;101786.81;;;26.01;56.09
75006;BME280;63553;51.814;4.600;2023-06-22T12:05:25;101791.81;;;25.24;57.36
75006;BME280;63553;51.814;4.600;2023-06-22T12:07:53;101800.22;;;24.96;58.36
75006;BME280;63553;51.814;4.600;2023-06-22T12:10:20;101796.22;;;25.08;56.57
75006;BME280;63553;51.814;4.600;2023-06-22T12:12:46;101787.13;;;24.81;57.27
75006;BME280;63553;51.814;4.600;2023-06-22T12:15:11;101789.44;;;25.37;55.77
75006;BME280;63553;51.814;4.600;2023-06-22T12:17:37;101783.53;;;25.77;54.79
75006;BME280;63553;51.814;4.600;2023-06-22T12:20:02;101767.66;;;25.80;54.34
75006;BME280;63553;51.814;4.600;2023-06-22T12:22:31;101777.53;;;25.14;55.82
75006;BME280;63553;51.814;4.600;2023-06-22T12:24:57;101768.88;;;24.89;56.78
75006;BME280;63553;51.814;4.600;2023-06-22T12:27:22;101767.44;;;25.30;56.23
75006;BME280;63553;51.814;4.600;2023-06-22T12:29:48;101775.31;;;25.62;54.76
75006;BME280;63553;51.814;4.600;2023-06-22T12:32:14;101763.59;;;25.98;53.94
75006;BME280;63553;51.814;4.600;2023-06-22T12:34:41;101770.03;;;25.64;56.33
75006;BME280;63553;51.814;4.600;2023-06-22T12:37:07;101771.13;;;25.34;55.81
75006;BME280;63553;51.814;4.600;2023-06-22T12:39:32;101767.47;;;25.37;56.97
75006;BME280;63553;51.814;4.600;2023-06-22T12:41:57;101768.00;;;25.64;56.06
75006;BME280;63553;51.814;4.600;2023-06-22T12:44:23;101777.88;;;25.02;59.07
75006;BME280;63553;51.814;4.600;2023-06-22T12:46:48;101772.25;;;25.16;58.46
75006;BME280;63553;51.814;4.600;2023-06-22T12:49:13;101769.53;;;25.44;56.38
75006;BME280;63553;51.814;4.600;2023-06-22T12:51:40;101769.66;;;25.65;56.64